July 18, 2019
Temp
 
83.7 °F
 
Heat Idx
 
84.6 °F
 
Dew Pt.
 
60.7 °F
 
Humidity
 
46%
 
Pressure
 
1010.7 hPa 
  steady
Wind
 
0.0 mph 
    SW
Rain
 
0.00 in 
  0.00 in/hr
UV index
 
---  
 
Solar rad.
 
100 W/m²
 
Tonight

Tonight: Increasing clouds, with a low around 62. South southwest wind 5 to 10 mph becoming light south  in the evening.
Increasing
Clouds
Friday

Friday: Partly sunny, then gradually becoming sunny, with a high near 82. Light south southeast wind becoming southwest 5 to 10 mph in the afternoon.
Becoming
Sunny
Lo 62 °F Hi 82 °F
Earthquakes of magnitude 2.5 or greater within 150 miles
Near CityMagnitudeDistance to
Epicenter
Local TimeLink
Borrego Springs, CA 3.3 114 mi (183 km) 2019/07/18 17:57:28 map
Little Lake, CA 2.6 117 mi (189 km) 2019/07/18 17:22:34 map
Searles Valley, CA 3.0 125 mi (201 km) 2019/07/18 17:19:25 map
Searles Valley, CA 3.0 107 mi (172 km) 2019/07/18 17:01:10 map
Coso Junction, CA 2.7 135 mi (218 km) 2019/07/18 16:54:32 map
Ridgecrest, CA 3.6 114 mi (184 km) 2019/07/18 14:46:37 map
Coso Junction, CA 2.8 135 mi (217 km) 2019/07/18 13:16:54 map
Little Lake, CA 2.6 123 mi (198 km) 2019/07/18 09:43:37 map
Searles Valley, CA 2.6 109 mi (176 km) 2019/07/18 08:49:04 map
Searles Valley, CA 2.5 114 mi (184 km) 2019/07/18 07:28:43 map
Searles Valley, CA 2.7 107 mi (173 km) 2019/07/18 07:20:58 map
Coso Junction, CA 2.5 132 mi (212 km) 2019/07/18 07:20:52 map
Trona, CA 2.7 132 mi (212 km) 2019/07/18 04:17:47 map
Trona, CA 2.6 103 mi (165 km) 2019/07/18 02:57:16 map
Little Lake, CA 2.6 121 mi (194 km) 2019/07/18 01:48:28 map
Coso Junction, CA 3.1 135 mi (217 km) 2019/07/18 01:22:02 map
Coso Junction, CA 2.8 133 mi (214 km) 2019/07/18 00:44:58 map
Coso Junction, CA 3.3 135 mi (218 km) 2019/07/17 23:14:29 map
Coso Junction, CA 2.6 135 mi (218 km) 2019/07/17 22:26:41 map
Coso Junction, CA 3.4 135 mi (218 km) 2019/07/17 22:18:11 map
Little Lake, CA 2.5 128 mi (206 km) 2019/07/17 21:32:38 map
Coso Junction, CA 2.9 135 mi (217 km) 2019/07/17 21:15:37 map
Coso Junction, CA 2.7 137 mi (220 km) 2019/07/17 21:06:28 map
Coso Junction, CA 3.4 135 mi (217 km) 2019/07/17 21:02:07 map
Coso Junction, CA 3.4 135 mi (218 km) 2019/07/17 21:01:32 map
Coso Junction, CA 2.8 135 mi (218 km) 2019/07/17 21:00:51 map
Coso Junction, CA 4.6 135 mi (218 km) 2019/07/17 20:59:14 map
Searles Valley, CA 2.7 106 mi (171 km) 2019/07/17 20:05:39 map
Searles Valley, CA 3.2 105 mi (169 km) 2019/07/17 20:02:37 map
Searles Valley, CA 2.8 106 mi (171 km) 2019/07/17 19:36:31 map
Searles Valley, CA 2.6 106 mi (170 km) 2019/07/17 19:34:59 map
Searles Valley, CA 3.3 112 mi (181 km) 2019/07/17 19:33:43 map
Searles Valley, CA 2.5 116 mi (186 km) 2019/07/17 17:46:46 map
Searles Valley, CA 2.5 106 mi (171 km) 2019/07/17 16:18:51 map
Johannesburg, CA 3.2 85 mi (136 km) 2019/07/17 15:41:15 map
Coso Junction, CA 2.6 135 mi (218 km) 2019/07/17 15:29:15 map
Searles Valley, CA 3.4 107 mi (172 km) 2019/07/17 15:01:35 map
Olancha, CA 2.7 141 mi (227 km) 2019/07/17 15:01:20 map
Coso Junction, CA 3.9 135 mi (218 km) 2019/07/17 14:49:19 map
Little Lake, CA 3.4 122 mi (196 km) 2019/07/17 12:54:03 map
Searles Valley, CA 2.7 107 mi (173 km) 2019/07/17 12:42:31 map
Searles Valley, CA 3.6 107 mi (172 km) 2019/07/17 12:42:15 map
Trona, CA 2.6 103 mi (166 km) 2019/07/17 12:02:03 map
Little Lake, CA 2.8 120 mi (193 km) 2019/07/17 09:46:39 map
Little Lake, CA 3.1 121 mi (195 km) 2019/07/17 08:12:00 map
Little Lake, CA 3.3 121 mi (195 km) 2019/07/17 08:11:50 map
Little Lake, CA 3.0 121 mi (195 km) 2019/07/17 08:07:20 map
Searles Valley, CA 3.1 109 mi (175 km) 2019/07/17 07:48:46 map
Little Lake, CA 2.7 124 mi (199 km) 2019/07/17 06:24:40 map
Little Lake, CA 3.0 123 mi (198 km) 2019/07/17 05:57:33 map
Searles Valley, CA 2.7 109 mi (175 km) 2019/07/17 05:11:09 map
Searles Valley, CA 2.6 107 mi (172 km) 2019/07/17 02:46:06 map
Little Lake, CA 3.1 119 mi (191 km) 2019/07/16 22:49:52 map
Searles Valley, CA 2.6 106 mi (170 km) 2019/07/16 22:16:00 map
Coso Junction, CA 2.9 136 mi (219 km) 2019/07/16 20:45:58 map
Coso Junction, CA 3.5 135 mi (218 km) 2019/07/16 20:23:27 map
Coso Junction, CA 3.2 135 mi (218 km) 2019/07/16 20:22:49 map
Ridgecrest, CA 2.7 108 mi (174 km) 2019/07/16 20:08:29 map
Coso Junction, CA 3.2 135 mi (218 km) 2019/07/16 19:36:29 map
Coso Junction, CA 3.1 135 mi (218 km) 2019/07/16 19:35:27 map
Coso Junction, CA 2.7 135 mi (218 km) 2019/07/16 19:30:50 map
Coso Junction, CA 4.4 135 mi (218 km) 2019/07/16 19:29:07 map
Searles Valley, CA 3.1 105 mi (169 km) 2019/07/16 18:47:24 map
Little Lake, CA 2.6 119 mi (191 km) 2019/07/16 18:06:11 map
Searles Valley, CA 3.3 106 mi (170 km) 2019/07/16 17:53:16 map
Ridgecrest, CA 2.5 115 mi (185 km) 2019/07/16 16:43:03 map
Coso Junction, CA 2.6 132 mi (213 km) 2019/07/16 15:50:40 map
Searles Valley, CA 2.7 114 mi (183 km) 2019/07/16 15:38:43 map
Little Lake, CA 3.1 120 mi (193 km) 2019/07/16 14:06:21 map
Ridgecrest, CA 2.8 101 mi (162 km) 2019/07/16 13:17:51 map
Searles Valley, CA 3.6 108 mi (174 km) 2019/07/16 13:15:59 map
Ridgecrest, CA 4.5 114 mi (184 km) 2019/07/16 13:15:36 map
Olancha, CA 2.7 140 mi (226 km) 2019/07/16 12:23:50 map
Coso Junction, CA 2.5 129 mi (208 km) 2019/07/16 12:11:48 map
Ridgecrest, CA 2.5 108 mi (174 km) 2019/07/16 12:01:00 map
Searles Valley, CA 2.7 112 mi (180 km) 2019/07/16 11:36:26 map
Olancha, CA 2.9 142 mi (228 km) 2019/07/16 10:05:45 map
Searles Valley, CA 2.9 116 mi (186 km) 2019/07/16 08:59:52 map
Coso Junction, CA 3.0 135 mi (217 km) 2019/07/16 08:57:04 map
Searles Valley, CA 3.5 130 mi (210 km) 2019/07/16 07:38:46 map
Coso Junction, CA 2.6 136 mi (219 km) 2019/07/16 07:02:10 map
Searles Valley, CA 3.1 107 mi (173 km) 2019/07/16 06:16:50 map
Searles Valley, CA 2.6 106 mi (171 km) 2019/07/16 06:16:17 map
Searles Valley, CA 2.5 131 mi (211 km) 2019/07/16 04:50:02 map
Ridgecrest, CA 2.6 102 mi (164 km) 2019/07/16 03:57:49 map
Trona, CA 3.5 105 mi (169 km) 2019/07/16 03:52:32 map
Ridgecrest, CA 2.8 115 mi (185 km) 2019/07/16 02:42:34 map
Little Lake, CA 2.5 125 mi (201 km) 2019/07/16 02:42:12 map
Trona, CA 2.7 101 mi (163 km) 2019/07/16 01:42:27 map
Ridgecrest, CA 2.7 101 mi (162 km) 2019/07/16 01:39:47 map
Ridgecrest, CA 2.9 107 mi (173 km) 2019/07/16 00:51:09 map
Searles Valley, CA 2.5 116 mi (187 km) 2019/07/15 23:01:33 map
Coso Junction, CA 2.7 132 mi (212 km) 2019/07/15 22:29:42 map
Ridgecrest, CA 3.6 114 mi (184 km) 2019/07/15 22:26:52 map
Little Lake, CA 3.0 120 mi (193 km) 2019/07/15 21:52:28 map
Little Lake, CA 2.5 124 mi (200 km) 2019/07/15 21:27:34 map
Ridgecrest, CA 2.5 115 mi (185 km) 2019/07/15 21:15:45 map
Searles Valley, CA 2.8 108 mi (174 km) 2019/07/15 20:35:48 map
Little Lake, CA 3.2 118 mi (190 km) 2019/07/15 20:32:11 map
Olancha, CA 2.8 141 mi (227 km) 2019/07/15 20:12:10 map
Coso Junction, CA 2.5 134 mi (215 km) 2019/07/15 19:56:07 map
Searles Valley, CA 3.8 106 mi (171 km) 2019/07/15 19:47:05 map
Little Lake, CA 3.0 119 mi (192 km) 2019/07/15 19:35:52 map
Little Lake, CA 2.5 121 mi (194 km) 2019/07/15 18:18:11 map
Little Lake, CA 2.7 125 mi (201 km) 2019/07/15 18:05:07 map
Little Lake, CA 3.1 124 mi (200 km) 2019/07/15 17:50:22 map
Trona, CA 2.9 134 mi (216 km) 2019/07/15 17:26:09 map
Trona, CA 2.7 131 mi (211 km) 2019/07/15 14:50:40 map
Searles Valley, CA 3.7 108 mi (174 km) 2019/07/15 14:29:53 map
Ridgecrest, CA 3.2 107 mi (173 km) 2019/07/15 14:13:55 map
Coso Junction, CA 2.6 136 mi (219 km) 2019/07/15 13:30:45 map
Coso Junction, CA 2.7 132 mi (212 km) 2019/07/15 13:21:19 map
Searles Valley, CA 2.6 127 mi (204 km) 2019/07/15 12:14:51 map
Little Lake, CA 3.0 122 mi (197 km) 2019/07/15 11:34:49 map
Coso Junction, CA 2.6 132 mi (212 km) 2019/07/15 11:34:00 map
Little Lake, CA 2.5 124 mi (200 km) 2019/07/15 10:00:20 map
Searles Valley, CA 2.5 108 mi (174 km) 2019/07/15 09:55:14 map
Searles Valley, CA 2.9 112 mi (181 km) 2019/07/15 09:06:10 map
Searles Valley, CA 3.6 109 mi (176 km) 2019/07/15 08:43:36 map
Coso Junction, CA 2.7 133 mi (214 km) 2019/07/15 07:54:19 map
Coso Junction, CA 2.7 135 mi (217 km) 2019/07/15 07:13:57 map
Coso Junction, CA 2.7 132 mi (213 km) 2019/07/15 06:29:35 map
Little Lake, CA 2.6 124 mi (199 km) 2019/07/15 05:38:14 map
Coso Junction, CA 3.0 135 mi (217 km) 2019/07/15 05:25:44 map
Coso Junction, CA 2.6 133 mi (214 km) 2019/07/15 04:58:14 map
Little Lake, CA 2.6 124 mi (199 km) 2019/07/15 03:39:32 map
Searles Valley, CA 2.9 109 mi (175 km) 2019/07/15 03:29:10 map
Little Lake, CA 2.9 123 mi (198 km) 2019/07/15 03:18:36 map
Coso Junction, CA 2.7 131 mi (211 km) 2019/07/15 01:42:10 map
Coso Junction, CA 4.2 131 mi (211 km) 2019/07/15 01:38:45 map
Searles Valley, CA 2.7 107 mi (173 km) 2019/07/15 01:10:58 map
Little Lake, CA 2.9 123 mi (198 km) 2019/07/15 00:14:01 map
Johannesburg, CA 3.1 84 mi (135 km) 2019/07/14 23:39:55 map
Ridgecrest, CA 3.0 103 mi (165 km) 2019/07/14 21:55:56 map
Searles Valley, CA 2.7 111 mi (178 km) 2019/07/14 21:14:39 map
Searles Valley, CA 2.5 106 mi (170 km) 2019/07/14 20:12:42 map
Searles Valley, CA 3.6 107 mi (173 km) 2019/07/14 19:54:39 map
Little Lake, CA 2.5 126 mi (203 km) 2019/07/14 19:14:27 map
Coso Junction, CA 2.7 132 mi (213 km) 2019/07/14 17:35:36 map
Ridgecrest, CA 2.6 109 mi (175 km) 2019/07/14 17:16:18 map
Coso Junction, CA 3.1 134 mi (215 km) 2019/07/14 16:15:55 map
Trona, CA 3.4 104 mi (168 km) 2019/07/14 15:38:05 map
Searles Valley, CA 2.9 104 mi (168 km) 2019/07/14 15:22:28 map
Searles Valley, CA 2.5 106 mi (170 km) 2019/07/14 15:01:45 map
Coso Junction, CA 3.2 135 mi (217 km) 2019/07/14 13:40:15 map
Searles Valley, CA 3.0 113 mi (182 km) 2019/07/14 13:37:06 map
Coso Junction, CA 2.5 139 mi (224 km) 2019/07/14 12:01:51 map
Olancha, CA 2.6 140 mi (225 km) 2019/07/14 09:51:13 map
Searles Valley, CA 2.5 114 mi (183 km) 2019/07/14 08:39:21 map
Trona, CA 3.0 104 mi (167 km) 2019/07/14 07:00:16 map
Little Lake, CA 2.9 124 mi (199 km) 2019/07/14 05:54:26 map
California City, CA 3.0 81 mi (131 km) 2019/07/14 05:29:33 map
Searles Valley, CA 3.0 107 mi (172 km) 2019/07/14 05:27:03 map
Ridgecrest, CA 2.8 114 mi (183 km) 2019/07/14 04:46:11 map
Searles Valley, CA 2.6 107 mi (172 km) 2019/07/14 04:13:23 map
Olancha, CA 3.3 141 mi (227 km) 2019/07/14 04:00:08 map
Searles Valley, CA 2.6 129 mi (207 km) 2019/07/14 02:19:45 map
Searles Valley, CA 2.7 108 mi (174 km) 2019/07/14 01:13:59 map
Little Lake, CA 2.5 127 mi (204 km) 2019/07/14 00:46:23 map
Little Lake, CA 2.7 122 mi (197 km) 2019/07/14 00:07:52 map
Little Lake, CA 2.6 122 mi (197 km) 2019/07/13 23:34:15 map
Little Lake, CA 3.3 121 mi (194 km) 2019/07/13 23:06:39 map
Little Lake, CA 3.5 127 mi (204 km) 2019/07/13 23:03:17 map
Searles Valley, CA 2.7 106 mi (170 km) 2019/07/13 22:35:33 map
Little Lake, CA 3.1 127 mi (204 km) 2019/07/13 22:26:24 map
Searles Valley, CA 2.8 104 mi (167 km) 2019/07/13 20:48:50 map
Little Lake, CA 2.5 120 mi (193 km) 2019/07/13 20:40:35 map
Searles Valley, CA 2.7 114 mi (184 km) 2019/07/13 19:28:17 map
Olancha, CA 2.5 140 mi (226 km) 2019/07/13 17:43:06 map
Trona, CA 2.8 104 mi (168 km) 2019/07/13 16:11:51 map
Little Lake, CA 3.2 124 mi (199 km) 2019/07/13 16:03:35 map
Ridgecrest, CA 3.5 108 mi (174 km) 2019/07/13 15:58:40 map
Trona, CA 3.1 100 mi (161 km) 2019/07/13 15:05:12 map
Ridgecrest, CA 2.5 107 mi (173 km) 2019/07/13 13:41:00 map
Searles Valley, CA 3.3 109 mi (175 km) 2019/07/13 12:06:15 map
Ridgecrest, CA 2.7 109 mi (176 km) 2019/07/13 11:25:08 map
Coso Junction, CA 2.5 135 mi (217 km) 2019/07/13 11:24:47 map
Olancha, CA 2.8 142 mi (228 km) 2019/07/13 11:14:34 map
Rosarito, B.C., MX 2.6 141 mi (227 km) 2019/07/13 09:05:48 map
Searles Valley, CA 2.8 104 mi (167 km) 2019/07/13 08:35:32 map
Searles Valley, CA 3.1 121 mi (195 km) 2019/07/13 07:54:31 map
Little Lake, CA 3.1 122 mi (197 km) 2019/07/13 07:34:41 map
Searles Valley, CA 2.5 107 mi (173 km) 2019/07/13 07:21:54 map
Searles Valley, CA 3.1 106 mi (171 km) 2019/07/13 04:45:21 map
Coso Junction, CA 2.6 134 mi (215 km) 2019/07/13 04:42:27 map
Little Lake, CA 2.9 119 mi (191 km) 2019/07/13 04:22:38 map
Little Lake, CA 2.9 119 mi (192 km) 2019/07/13 04:15:22 map
Trona, CA 2.8 104 mi (168 km) 2019/07/13 03:26:13 map
Searles Valley, CA 3.8 128 mi (206 km) 2019/07/13 03:25:19 map
Little Lake, CA 2.6 119 mi (191 km) 2019/07/13 01:19:31 map
Ridgecrest, CA 2.6 106 mi (171 km) 2019/07/13 00:40:04 map
Searles Valley, CA 2.9 115 mi (185 km) 2019/07/12 23:24:44 map
Searles Valley, CA 3.0 107 mi (173 km) 2019/07/12 23:12:17 map
Searles Valley, CA 2.7 109 mi (175 km) 2019/07/12 21:03:09 map
Little Lake, CA 2.5 124 mi (199 km) 2019/07/12 20:39:41 map
Ridgecrest, CA 2.8 107 mi (172 km) 2019/07/12 19:47:44 map
Searles Valley, CA 2.5 111 mi (178 km) 2019/07/12 19:06:22 map
Searles Valley, CA 3.2 112 mi (181 km) 2019/07/12 18:16:52 map
Little Lake, CA 2.6 122 mi (197 km) 2019/07/12 18:10:11 map
Ridgecrest, CA 2.5 104 mi (168 km) 2019/07/12 16:33:09 map
Searles Valley, CA 3.1 109 mi (175 km) 2019/07/12 16:23:38 map
Coso Junction, CA 2.7 134 mi (216 km) 2019/07/12 13:47:32 map
Ridgecrest, CA 2.5 116 mi (187 km) 2019/07/12 13:33:26 map
Ridgecrest, CA 2.5 107 mi (173 km) 2019/07/12 13:24:42 map
Little Lake, CA 2.9 125 mi (201 km) 2019/07/12 12:57:59 map
Little Lake, CA 2.8 123 mi (198 km) 2019/07/12 12:15:30 map
Trona, CA 2.6 104 mi (167 km) 2019/07/12 11:02:01 map
Ridgecrest, CA 2.7 110 mi (177 km) 2019/07/12 09:42:41 map
Searles Valley, CA 2.5 107 mi (172 km) 2019/07/12 09:22:54 map
Ridgecrest, CA 2.8 98 mi (158 km) 2019/07/12 09:17:22 map
Ridgecrest, CA 2.5 104 mi (167 km) 2019/07/12 08:38:26 map
Searles Valley, CA 2.5 114 mi (183 km) 2019/07/12 06:14:16 map
Ridgecrest, CA 2.8 104 mi (167 km) 2019/07/12 06:13:34 map
Ridgecrest, CA 3.1 104 mi (168 km) 2019/07/12 06:13:19 map
Ridgecrest, CA 4.9 104 mi (168 km) 2019/07/12 06:11:37 map
Little Lake, CA 2.5 124 mi (200 km) 2019/07/12 06:00:15 map
Olancha, CA 2.5 141 mi (227 km) 2019/07/12 05:24:33 map
Searles Valley, CA 2.9 109 mi (176 km) 2019/07/12 04:02:09 map
Searles Valley, CA 2.7 107 mi (173 km) 2019/07/12 02:27:57 map
Searles Valley, CA 2.8 110 mi (177 km) 2019/07/12 00:56:25 map
Trona, CA 3.1 101 mi (163 km) 2019/07/12 00:56:02 map
Olancha, CA 2.7 141 mi (227 km) 2019/07/12 00:55:00 map
Ridgecrest, CA 2.5 107 mi (173 km) 2019/07/12 00:37:18 map
Trona, CA 2.8 106 mi (170 km) 2019/07/11 23:49:05 map
Coso Junction, CA 2.5 133 mi (214 km) 2019/07/11 22:59:00 map
Searles Valley, CA 2.7 128 mi (206 km) 2019/07/11 21:46:24 map
Searles Valley, CA 3.2 109 mi (176 km) 2019/07/11 21:30:14 map
Olancha, CA 3.3 140 mi (225 km) 2019/07/11 21:11:59 map
Little Lake, CA 3.3 121 mi (194 km) 2019/07/11 20:32:17 map
Searles Valley, CA 3.9 128 mi (206 km) 2019/07/11 20:27:53 map
Little Lake, CA 3.1 119 mi (192 km) 2019/07/11 20:26:23 map
Olancha, CA 2.6 140 mi (226 km) 2019/07/11 19:45:22 map
Ridgecrest, CA 2.5 108 mi (174 km) 2019/07/11 19:24:38 map
Olancha, CA 3.7 140 mi (225 km) 2019/07/11 19:18:30 map

Click on location for more details from the USGS.